This is the latest recevied weather packets stored in our database for station/object IU3NMQ-10. If no packets are shown the sender has not sent any weather packets the latest 10 day(s).
| Time | Temp. | Humidity | Pressure | Rain* | Wind** | Luminosity | Snow |
|---|---|---|---|---|---|---|---|
| 1787688009 | 24.44° C | 78% | 1010 hPa | - | - | - | - |
| 1787687109 | 24.44° C | 78% | 1009.8 hPa | - | - | - | - |
| 1787686208 | 25° C | 77% | 1009.7 hPa | - | - | - | - |
| 1787685308 | 25° C | 77% | 1009.7 hPa | - | - | - | - |
| 1787684408 | 25° C | 76% | 1009.6 hPa | - | - | - | - |
| 1787683508 | 25° C | 77% | 1009.4 hPa | - | - | - | - |
| 1787682608 | 25.56° C | 75% | 1009.2 hPa | - | - | - | - |
| 1787681708 | 25.56° C | 75% | 1009 hPa | - | - | - | - |
| 1787680808 | 26.11° C | 72% | 1008.8 hPa | - | - | - | - |
| 1787679908 | 26.67° C | 70% | 1008.7 hPa | - | - | - | - |
| 1787679007 | 27.22° C | 70% | 1008.6 hPa | - | - | - | - |
| 1787678108 | 27.22° C | 68% | 1008.3 hPa | - | - | - | - |
| 1787677207 | 27.78° C | 66% | 1008.2 hPa | - | - | - | - |
| 1787676307 | 27.78° C | 65% | 1008 hPa | - | - | - | - |
| 1787675407 | 28.33° C | 64% | 1007.9 hPa | - | - | - | - |
| 1787674507 | 28.33° C | 63% | 1007.8 hPa | - | - | - | - |
| 1787673607 | 28.33° C | 65% | 1007.9 hPa | - | - | - | - |
| 1787672706 | 28.33° C | 63% | 1007.9 hPa | - | - | - | - |
| 1787671806 | 28.89° C | 61% | 1007.8 hPa | - | - | - | - |
| 1787670906 | 29.44° C | 60% | 1007.8 hPa | - | - | - | - |
| 1787670006 | 29.44° C | 60% | 1007.8 hPa | - | - | - | - |
| 1787669106 | 28.89° C | 62% | 1007.7 hPa | - | - | - | - |
| 1787668206 | 29.44° C | 60% | 1007.5 hPa | - | - | - | - |
| 1787667306 | 29.44° C | 61% | 1007.4 hPa | - | - | - | - |
| 1787666406 | 28.89° C | 61% | 1007.5 hPa | - | - | - | - |
* Rain since midnight (hover to see other rain measurements)
** Current wind speed in m/s (hover to see current wind gust speed)